createdAt,value
2022-12-06T00:01:19.649Z,1.80
2022-12-06T00:03:51.242Z,1.80
2022-12-06T00:06:20.823Z,1.80
2022-12-06T00:08:48.592Z,1.90
2022-12-06T00:11:18.745Z,1.80
2022-12-06T00:13:46.988Z,1.80
2022-12-06T00:16:16.888Z,1.90
2022-12-06T00:18:45.501Z,1.80
2022-12-06T00:21:22.107Z,1.80
2022-12-06T00:24:17.079Z,1.80
2022-12-06T00:26:46.270Z,1.80
2022-12-06T00:29:19.958Z,1.90
2022-12-06T00:31:47.607Z,2.00
2022-12-06T00:34:15.080Z,2.00
2022-12-06T00:36:43.071Z,2.00
2022-12-06T00:39:13.833Z,2.10
2022-12-06T00:41:42.144Z,2.10
2022-12-06T00:44:10.125Z,2.10
2022-12-06T00:46:38.039Z,2.10
2022-12-06T00:49:06.906Z,2.10
2022-12-06T00:51:35.747Z,2.20
2022-12-06T00:54:03.272Z,2.30
2022-12-06T00:56:30.615Z,2.30
2022-12-06T00:58:57.764Z,2.30
2022-12-06T01:01:31.155Z,2.20
2022-12-06T01:04:00.443Z,2.20
2022-12-06T01:06:30.550Z,2.10
2022-12-06T01:09:00.003Z,2.20
2022-12-06T01:11:28.452Z,2.20
2022-12-06T01:13:56.231Z,2.20
2022-12-06T01:16:25.796Z,2.20
2022-12-06T01:18:55.288Z,2.30
2022-12-06T01:21:23.250Z,2.30
2022-12-06T01:23:51.088Z,2.20
2022-12-06T01:26:25.750Z,2.20
2022-12-06T01:28:53.168Z,2.10
2022-12-06T01:31:20.555Z,2.10
2022-12-06T01:33:47.657Z,2.00
2022-12-06T01:36:23.457Z,2.00
2022-12-06T01:38:51.867Z,1.90
2022-12-06T01:41:20.941Z,1.90
2022-12-06T01:43:48.889Z,1.90
2022-12-06T01:46:44.722Z,1.90
2022-12-06T01:49:27.012Z,2.00
2022-12-06T01:52:00.220Z,2.00
2022-12-06T01:54:28.842Z,2.00
2022-12-06T01:56:58.018Z,2.00
2022-12-06T01:59:26.325Z,2.00
2022-12-06T02:01:54.210Z,1.90
2022-12-06T02:04:22.470Z,1.80
2022-12-06T02:06:51.653Z,1.90
2022-12-06T02:09:19.823Z,2.00
2022-12-06T02:11:47.571Z,2.20
2022-12-06T02:14:19.293Z,2.20
2022-12-06T02:17:28.558Z,2.30
2022-12-06T02:20:34.506Z,2.30
2022-12-06T02:23:31.263Z,2.30
2022-12-06T02:26:27.108Z,2.30
2022-12-06T02:29:53.383Z,2.30
2022-12-06T02:32:30.034Z,2.30
2022-12-06T02:35:34.824Z,2.20
2022-12-06T02:38:18.564Z,2.30
2022-12-06T02:40:54.337Z,2.30
2022-12-06T02:43:26.789Z,2.30
2022-12-06T02:45:57.808Z,2.30
2022-12-06T02:48:26.472Z,2.20
2022-12-06T02:51:06.346Z,2.20
2022-12-06T02:53:37.108Z,2.30
2022-12-06T02:56:04.870Z,2.30
2022-12-06T02:58:37.321Z,2.20
2022-12-06T03:01:14.334Z,2.20
2022-12-06T03:04:04.116Z,2.20
2022-12-06T03:06:56.138Z,2.20
2022-12-06T03:10:00.248Z,2.40
2022-12-06T03:12:39.869Z,2.40
2022-12-06T03:15:55.542Z,2.20
2022-12-06T03:18:32.293Z,2.20
2022-12-06T03:21:12.363Z,2.20
2022-12-06T03:23:45.554Z,2.30
2022-12-06T03:26:16.767Z,2.30
2022-12-06T03:28:47.671Z,2.30
2022-12-06T03:31:15.359Z,2.30
2022-12-06T03:33:59.442Z,2.20
2022-12-06T03:36:27.923Z,2.30
2022-12-06T03:39:06.949Z,2.30
2022-12-06T03:41:44.832Z,2.30
2022-12-06T03:44:12.037Z,2.20
2022-12-06T03:46:45.132Z,2.20
2022-12-06T03:49:16.137Z,2.40
2022-12-06T03:51:44.086Z,2.40
2022-12-06T03:54:11.520Z,2.40
2022-12-06T03:56:39.364Z,2.40
2022-12-06T03:59:08.313Z,2.40
2022-12-06T04:01:35.671Z,2.50
2022-12-06T04:04:03.374Z,2.50
2022-12-06T04:06:30.632Z,2.50
2022-12-06T04:09:16.411Z,2.50
2022-12-06T04:11:43.458Z,2.50
2022-12-06T04:14:10.673Z,2.50
2022-12-06T04:16:56.360Z,2.30
2022-12-06T04:19:23.503Z,2.30
2022-12-06T04:22:08.869Z,2.20
2022-12-06T04:24:35.923Z,2.20
2022-12-06T04:27:21.635Z,2.20
2022-12-06T04:30:07.171Z,2.10
2022-12-06T04:32:52.802Z,2.20
2022-12-06T04:35:38.270Z,2.10
2022-12-06T04:38:23.788Z,2.30
2022-12-06T04:40:50.857Z,2.30
2022-12-06T04:43:36.413Z,2.20
2022-12-06T04:46:03.674Z,2.10
2022-12-06T04:48:30.696Z,2.10
2022-12-06T04:50:57.793Z,2.10
2022-12-06T04:53:24.858Z,2.10
2022-12-06T04:55:52.943Z,2.10
2022-12-06T04:58:20.021Z,2.00
2022-12-06T05:00:47.150Z,2.00
2022-12-06T05:03:15.123Z,1.90
2022-12-06T05:05:42.644Z,2.00
2022-12-06T05:08:10.202Z,2.10
2022-12-06T05:10:37.643Z,2.10
2022-12-06T05:13:05.676Z,2.00
2022-12-06T05:15:33.290Z,2.00
2022-12-06T05:18:00.362Z,2.00
2022-12-06T05:20:27.497Z,2.00
2022-12-06T05:22:54.521Z,2.00
2022-12-06T05:25:21.610Z,2.00
2022-12-06T05:27:48.792Z,2.10
2022-12-06T05:30:16.043Z,2.00
2022-12-06T05:32:43.105Z,2.00
2022-12-06T05:35:10.470Z,2.00
2022-12-06T05:37:37.553Z,2.10
2022-12-06T05:40:05.354Z,2.00
2022-12-06T05:42:32.356Z,2.10
2022-12-06T05:44:59.420Z,2.20
2022-12-06T05:47:26.494Z,2.20
2022-12-06T05:49:53.645Z,2.20
2022-12-06T05:52:20.657Z,2.30
2022-12-06T05:54:47.738Z,2.30
2022-12-06T05:57:14.774Z,2.20
2022-12-06T05:59:41.880Z,2.10
2022-12-06T06:02:08.963Z,2.10
2022-12-06T06:04:36.204Z,2.00
2022-12-06T06:07:03.243Z,1.90
2022-12-06T06:09:30.370Z,2.00
2022-12-06T06:11:57.423Z,1.90
2022-12-06T06:14:24.604Z,2.00
2022-12-06T06:16:52.318Z,2.00
2022-12-06T06:19:19.525Z,2.10
2022-12-06T06:21:47.213Z,2.20
2022-12-06T06:24:14.307Z,2.20
2022-12-06T06:26:41.543Z,2.20
2022-12-06T06:29:08.760Z,2.10
2022-12-06T06:31:35.961Z,2.20
2022-12-06T06:34:03.789Z,2.30
2022-12-06T06:36:30.783Z,2.40
2022-12-06T06:38:59.054Z,2.40
2022-12-06T06:41:26.190Z,2.20
2022-12-06T06:43:53.302Z,2.20
2022-12-06T06:46:20.343Z,2.20
2022-12-06T06:48:48.170Z,2.10
2022-12-06T06:51:15.174Z,2.20
2022-12-06T06:53:42.228Z,2.30
2022-12-06T06:56:09.709Z,2.20
2022-12-06T06:58:36.917Z,2.30
2022-12-06T07:01:05.897Z,2.30
2022-12-06T07:03:33.861Z,2.40
2022-12-06T07:06:10.803Z,2.40
2022-12-06T07:08:39.713Z,2.40
2022-12-06T07:11:07.587Z,2.50
2022-12-06T07:13:36.037Z,2.30
2022-12-06T07:16:04.620Z,2.30
2022-12-06T07:18:31.680Z,2.30
2022-12-06T07:21:04.487Z,2.40
2022-12-06T07:23:33.402Z,2.50
2022-12-06T07:26:06.306Z,2.50
2022-12-06T07:28:39.455Z,2.40
2022-12-06T07:31:18.209Z,2.50
2022-12-06T07:33:46.303Z,2.50
2022-12-06T07:36:14.850Z,2.60
2022-12-06T07:38:43.572Z,2.70
2022-12-06T07:41:31.580Z,2.70
2022-12-06T07:44:18.435Z,2.50
2022-12-06T07:46:46.024Z,2.60
2022-12-06T07:49:15.812Z,2.70
2022-12-06T07:51:43.867Z,2.60
2022-12-06T07:54:11.211Z,2.60
2022-12-06T07:56:38.336Z,2.60
2022-12-06T07:59:05.676Z,2.70
2022-12-06T08:01:33.271Z,2.60
2022-12-06T08:04:01.922Z,2.60
2022-12-06T08:06:30.864Z,2.70
2022-12-06T08:08:59.038Z,2.80
2022-12-06T08:11:26.191Z,2.70
2022-12-06T08:13:53.167Z,2.50
2022-12-06T08:16:20.617Z,2.50
2022-12-06T08:18:47.801Z,2.60
2022-12-06T08:21:16.626Z,2.80
2022-12-06T08:23:43.724Z,2.90
2022-12-06T08:26:15.648Z,3.00
2022-12-06T08:28:46.045Z,2.90
2022-12-06T08:31:16.911Z,2.80
2022-12-06T08:33:44.619Z,2.80
2022-12-06T08:36:14.353Z,3.10
2022-12-06T08:38:41.584Z,3.00
2022-12-06T08:41:28.758Z,2.90
2022-12-06T08:43:56.837Z,2.90
2022-12-06T08:46:24.355Z,3.00
2022-12-06T08:48:51.864Z,3.10
2022-12-06T08:51:18.957Z,3.20
2022-12-06T08:53:46.020Z,3.40
2022-12-06T08:56:13.128Z,3.40
2022-12-06T08:58:40.205Z,3.30
2022-12-06T09:01:16.110Z,3.30
2022-12-06T09:03:43.298Z,3.20
2022-12-06T09:06:11.218Z,3.30
2022-12-06T09:08:38.625Z,3.30
2022-12-06T09:11:07.013Z,3.50
2022-12-06T09:13:37.978Z,3.40
2022-12-06T09:16:10.851Z,3.50
2022-12-06T09:18:38.085Z,3.50
2022-12-06T09:21:06.730Z,3.40
2022-12-06T09:23:35.321Z,3.40
2022-12-06T09:26:03.634Z,3.60
2022-12-06T09:28:31.782Z,3.70
2022-12-06T09:30:58.971Z,3.70
2022-12-06T09:33:26.875Z,3.70
2022-12-06T09:35:54.105Z,3.80
2022-12-06T09:38:24.393Z,3.80
2022-12-06T09:42:05.021Z,3.80
2022-12-06T09:45:01.389Z,3.70
2022-12-06T09:47:56.978Z,3.60
2022-12-06T09:50:50.244Z,3.60
2022-12-06T09:53:26.387Z,3.60
2022-12-06T09:56:40.203Z,3.60
2022-12-06T09:59:29.840Z,3.50
2022-12-06T10:03:04.728Z,3.40
2022-12-06T10:06:01.889Z,3.20
2022-12-06T10:09:12.208Z,3.20
2022-12-06T10:12:16.094Z,3.40
2022-12-06T10:15:27.099Z,3.40
2022-12-06T10:18:21.884Z,3.40
2022-12-06T10:21:22.039Z,3.40
2022-12-06T10:24:31.877Z,3.40
2022-12-06T10:27:23.821Z,3.10
2022-12-06T10:30:02.008Z,3.00
2022-12-06T10:41:34.478Z,3.00
2022-12-06T10:44:26.149Z,3.10
2022-12-06T10:47:06.865Z,3.20
2022-12-06T10:53:12.827Z,3.00
2022-12-06T10:55:55.543Z,3.10
2022-12-06T11:01:49.904Z,2.90
2022-12-06T11:04:25.211Z,3.10
2022-12-06T11:07:15.887Z,3.20
2022-12-06T11:09:52.029Z,3.30
2022-12-06T11:12:38.754Z,3.50
2022-12-06T11:15:36.494Z,3.20
2022-12-06T11:18:13.306Z,3.40
2022-12-06T11:20:48.257Z,3.30
2022-12-06T11:23:47.920Z,3.30
2022-12-06T11:26:57.450Z,3.30
2022-12-06T11:29:24.519Z,3.10
2022-12-06T11:31:55.012Z,3.20
2022-12-06T11:35:01.526Z,3.00
2022-12-06T11:37:33.971Z,2.90
2022-12-06T11:40:29.485Z,2.90
2022-12-06T11:43:00.891Z,2.90
2022-12-06T11:45:34.813Z,2.90
2022-12-06T11:48:11.536Z,3.00
2022-12-06T11:50:38.772Z,3.00
2022-12-06T11:53:15.586Z,2.90
2022-12-06T11:55:45.825Z,2.90
2022-12-06T11:58:59.236Z,3.00
2022-12-06T12:01:44.134Z,3.00
2022-12-06T12:04:35.817Z,2.80
2022-12-06T12:07:29.399Z,3.00
2022-12-06T12:10:01.882Z,3.00
2022-12-06T12:13:01.522Z,2.90
2022-12-06T12:15:28.834Z,2.80
2022-12-06T12:17:58.605Z,2.90
2022-12-06T12:20:30.351Z,2.80
2022-12-06T12:23:03.844Z,2.80
2022-12-06T12:25:36.617Z,2.80
2022-12-06T12:28:26.779Z,2.80
2022-12-06T12:30:56.267Z,2.70
2022-12-06T12:33:25.846Z,2.80
2022-12-06T12:36:09.928Z,2.90
2022-12-06T12:38:56.010Z,2.90
2022-12-06T12:41:31.662Z,3.10
2022-12-06T12:44:36.473Z,3.00
2022-12-06T12:47:20.980Z,3.00
2022-12-06T12:50:23.924Z,3.10
2022-12-06T12:52:51.931Z,2.90
2022-12-06T12:55:25.408Z,2.90
2022-12-06T12:57:58.498Z,3.00
2022-12-06T13:00:37.377Z,3.00
2022-12-06T13:03:34.894Z,3.00
2022-12-06T13:05:59.750Z,3.30
2022-12-06T13:08:33.863Z,3.20
2022-12-06T13:11:03.369Z,2.90
2022-12-06T13:13:43.059Z,3.10
2022-12-06T13:16:14.996Z,3.00
2022-12-06T13:18:54.182Z,2.80
2022-12-06T13:21:24.328Z,2.90
2022-12-06T13:23:57.146Z,3.00
2022-12-06T13:26:28.784Z,3.30
2022-12-06T13:29:11.391Z,3.50
2022-12-06T13:31:41.079Z,3.40
2022-12-06T13:34:41.983Z,3.10
2022-12-06T13:37:36.841Z,3.10
2022-12-06T13:40:05.825Z,3.30
2022-12-06T13:42:45.625Z,3.20
2022-12-06T13:45:40.544Z,3.20
2022-12-06T13:49:12.395Z,3.40
2022-12-06T13:51:43.854Z,3.40
2022-12-06T13:54:31.826Z,3.50
2022-12-06T13:57:02.345Z,3.60
2022-12-06T13:59:35.237Z,3.70
2022-12-06T14:02:02.504Z,3.60
2022-12-06T14:09:49.990Z,3.30
2022-12-06T14:12:28.569Z,3.40
2022-12-06T14:15:00.746Z,3.20
2022-12-06T14:20:33.506Z,3.20
2022-12-06T14:23:00.587Z,3.30
2022-12-06T14:25:29.861Z,3.30
2022-12-06T14:28:06.253Z,3.20
2022-12-06T14:30:33.642Z,3.20
2022-12-06T14:33:00.801Z,3.30
2022-12-06T14:35:35.352Z,3.30
2022-12-06T14:38:19.802Z,3.30
2022-12-06T14:41:05.841Z,3.20
2022-12-06T14:43:34.725Z,3.20
2022-12-06T14:46:07.745Z,3.20
2022-12-06T14:48:54.229Z,3.10
2022-12-06T14:51:33.924Z,3.20
2022-12-06T14:54:31.347Z,3.20
2022-12-06T14:56:58.509Z,3.10
2022-12-06T15:00:10.832Z,3.10
2022-12-06T15:02:28.347Z,3.20
2022-12-06T15:04:55.874Z,3.10
2022-12-06T15:07:43.149Z,3.10
2022-12-06T15:10:29.913Z,3.00
2022-12-06T15:13:14.477Z,3.00
2022-12-06T15:15:45.237Z,3.10
2022-12-06T15:18:23.989Z,3.20
2022-12-06T15:20:53.547Z,3.20
2022-12-06T15:23:41.102Z,3.20
2022-12-06T15:26:12.096Z,3.10
2022-12-06T15:28:39.483Z,3.20
2022-12-06T15:31:14.228Z,3.10
2022-12-06T15:33:41.394Z,3.10
2022-12-06T15:36:14.145Z,3.10
2022-12-06T15:38:41.421Z,3.10
2022-12-06T15:41:23.796Z,3.10
2022-12-06T15:43:52.063Z,3.20
2022-12-06T15:46:28.167Z,3.10
2022-12-06T15:48:56.071Z,3.10
2022-12-06T15:51:26.716Z,3.10
2022-12-06T15:53:56.177Z,3.10
2022-12-06T15:56:27.897Z,3.10
2022-12-06T15:58:54.954Z,3.10
2022-12-06T16:01:33.302Z,3.10
2022-12-06T16:04:00.851Z,3.20
2022-12-06T16:06:32.448Z,3.30
2022-12-06T16:08:59.514Z,3.30
2022-12-06T16:11:27.343Z,3.20
2022-12-06T16:13:54.473Z,3.20
2022-12-06T16:16:22.963Z,3.20
2022-12-06T16:18:50.748Z,3.10
2022-12-06T16:21:31.119Z,3.10
2022-12-06T16:24:12.992Z,3.10
2022-12-06T16:26:44.279Z,3.00
2022-12-06T16:29:29.513Z,3.00
2022-12-06T16:31:56.907Z,2.90
2022-12-06T16:34:25.079Z,2.90
2022-12-06T16:37:10.998Z,2.80
2022-12-06T16:39:38.061Z,2.80
2022-12-06T16:42:05.610Z,2.70
2022-12-06T16:44:34.152Z,2.70
2022-12-06T16:47:01.266Z,2.60
2022-12-06T16:49:46.451Z,2.60
2022-12-06T16:52:15.826Z,2.60
2022-12-06T16:54:43.068Z,2.60
2022-12-06T16:57:13.895Z,2.60
2022-12-06T16:59:42.814Z,2.50
2022-12-06T17:02:31.208Z,2.50
2022-12-06T17:05:01.381Z,2.50
2022-12-06T17:07:29.309Z,2.60
2022-12-06T17:09:56.737Z,2.60
2022-12-06T17:12:24.290Z,2.60
2022-12-06T17:14:51.501Z,2.60
2022-12-06T17:17:21.584Z,2.60
2022-12-06T17:19:49.512Z,2.60
2022-12-06T17:22:17.376Z,2.70
2022-12-06T17:24:45.030Z,2.70
2022-12-06T17:27:15.081Z,2.70
2022-12-06T17:29:43.652Z,2.70
2022-12-06T17:32:11.922Z,2.80
2022-12-06T17:34:39.134Z,2.80
2022-12-06T17:37:06.347Z,2.90
2022-12-06T17:39:33.834Z,2.80
2022-12-06T17:42:19.726Z,2.80
2022-12-06T17:44:46.877Z,2.80
2022-12-06T17:47:13.944Z,2.80
2022-12-06T17:49:41.050Z,2.80
2022-12-06T17:52:08.132Z,2.80
2022-12-06T17:54:35.273Z,2.80
2022-12-06T17:57:02.339Z,2.80
2022-12-06T17:59:32.101Z,2.70
2022-12-06T18:02:17.256Z,2.70
2022-12-06T18:04:45.936Z,2.70
2022-12-06T18:07:14.072Z,2.80
2022-12-06T18:09:41.349Z,2.80
2022-12-06T18:12:09.911Z,2.80
2022-12-06T18:14:37.159Z,2.80
2022-12-06T18:17:04.533Z,2.90
2022-12-06T18:19:32.374Z,3.00
2022-12-06T18:21:59.525Z,3.00
2022-12-06T18:24:31.993Z,3.00
2022-12-06T18:27:01.131Z,3.00
2022-12-06T18:29:28.192Z,3.00
2022-12-06T18:31:55.362Z,3.00
2022-12-06T18:34:22.579Z,3.00
2022-12-06T18:36:49.753Z,3.00
2022-12-06T18:39:24.459Z,3.10
2022-12-06T18:41:53.288Z,3.10
2022-12-06T18:44:20.591Z,3.00
2022-12-06T18:46:47.971Z,3.00
2022-12-06T18:49:15.450Z,3.00
2022-12-06T18:51:42.812Z,3.00
2022-12-06T18:54:11.399Z,2.90
2022-12-06T18:56:38.520Z,3.00
2022-12-06T18:59:07.340Z,3.00
2022-12-06T19:01:36.995Z,3.00
2022-12-06T19:04:06.115Z,3.00
2022-12-06T19:06:35.619Z,2.90
2022-12-06T19:09:09.562Z,2.90
2022-12-06T19:11:42.008Z,2.90
2022-12-06T19:14:10.198Z,2.90
2022-12-06T19:16:43.386Z,2.90
2022-12-06T19:19:16.860Z,2.90
2022-12-06T19:21:46.186Z,3.00
2022-12-06T19:24:16.139Z,2.90
2022-12-06T19:26:43.460Z,2.90
2022-12-06T19:29:10.609Z,2.90
2022-12-06T19:31:37.832Z,3.00
2022-12-06T19:34:05.025Z,3.00
2022-12-06T19:36:32.761Z,3.00
2022-12-06T19:39:03.170Z,3.10
2022-12-06T19:41:30.971Z,3.00
2022-12-06T19:44:17.135Z,3.00
2022-12-06T19:46:45.996Z,2.90
2022-12-06T19:49:14.811Z,2.90
2022-12-06T19:51:44.136Z,2.80
2022-12-06T19:54:14.750Z,2.80
2022-12-06T19:56:42.035Z,2.90
2022-12-06T19:59:12.052Z,3.00
2022-12-06T20:01:45.004Z,2.90
2022-12-06T20:04:23.334Z,3.00
2022-12-06T20:06:51.653Z,3.00
2022-12-06T20:09:20.659Z,3.00
2022-12-06T20:12:04.103Z,3.00
2022-12-06T20:14:40.347Z,3.00
2022-12-06T20:17:10.958Z,3.00
2022-12-06T20:19:38.812Z,2.90
2022-12-06T20:22:06.030Z,2.90
2022-12-06T20:24:33.124Z,2.90
2022-12-06T20:27:00.356Z,2.90
2022-12-06T20:29:27.676Z,2.90
2022-12-06T20:31:58.068Z,2.90
2022-12-06T20:34:26.078Z,2.90
2022-12-06T20:36:53.208Z,2.90
2022-12-06T20:39:22.913Z,2.90
2022-12-06T20:41:50.885Z,2.90
2022-12-06T20:44:18.542Z,2.80
2022-12-06T20:46:45.907Z,2.90
2022-12-06T20:49:13.311Z,2.90
2022-12-06T20:51:40.519Z,2.90
2022-12-06T20:54:07.965Z,2.90
2022-12-06T20:56:38.642Z,3.00
2022-12-06T20:59:08.023Z,3.00
2022-12-06T21:01:39.195Z,3.10
2022-12-06T21:04:06.668Z,3.10
2022-12-06T21:06:33.733Z,3.10
2022-12-06T21:09:01.112Z,3.10
2022-12-06T21:11:28.257Z,3.10
2022-12-06T21:13:57.307Z,3.00
2022-12-06T21:16:26.956Z,3.00
2022-12-06T21:18:59.464Z,3.10
2022-12-06T21:21:29.720Z,3.10
2022-12-06T21:24:00.223Z,3.00
2022-12-06T21:26:28.424Z,3.00
2022-12-06T21:28:55.845Z,3.00
2022-12-06T21:31:28.073Z,3.00
2022-12-06T21:33:56.233Z,2.90
2022-12-06T21:36:24.143Z,3.00
2022-12-06T21:38:51.417Z,2.90
2022-12-06T21:41:18.723Z,3.00
2022-12-06T21:43:46.021Z,2.90
2022-12-06T21:46:15.777Z,3.00
2022-12-06T21:48:43.236Z,3.00
2022-12-06T21:51:14.067Z,3.00
2022-12-06T21:53:41.277Z,3.00
2022-12-06T21:56:10.055Z,3.00
2022-12-06T21:58:37.186Z,2.90
2022-12-06T22:01:10.332Z,3.00
2022-12-06T22:03:38.224Z,3.00
2022-12-06T22:06:07.141Z,3.00
2022-12-06T22:08:34.348Z,3.00
2022-12-06T22:11:05.832Z,3.00
2022-12-06T22:13:32.970Z,3.00
2022-12-06T22:16:08.686Z,3.00
2022-12-06T22:18:41.163Z,3.00
2022-12-06T22:21:15.193Z,3.00
2022-12-06T22:23:42.704Z,3.00
2022-12-06T22:26:13.318Z,3.00
2022-12-06T22:28:40.390Z,3.00
2022-12-06T22:31:13.148Z,3.00
2022-12-06T22:33:40.915Z,3.00
2022-12-06T22:36:09.007Z,2.90
2022-12-06T22:38:36.425Z,2.90
2022-12-06T22:41:04.406Z,2.80
2022-12-06T22:43:31.777Z,2.90
2022-12-06T22:46:14.216Z,3.00
2022-12-06T22:48:42.700Z,3.00
2022-12-06T22:51:21.249Z,2.90
2022-12-06T22:53:53.843Z,2.90
2022-12-06T22:56:21.041Z,2.90
2022-12-06T22:58:48.313Z,2.90
2022-12-06T23:01:17.896Z,3.00
2022-12-06T23:03:46.682Z,3.00
2022-12-06T23:06:15.925Z,2.90
2022-12-06T23:08:43.491Z,2.90
2022-12-06T23:11:19.760Z,2.90
2022-12-06T23:13:47.950Z,2.90
2022-12-06T23:16:17.721Z,2.80
2022-12-06T23:18:45.686Z,2.80
2022-12-06T23:21:18.246Z,2.70
2022-12-06T23:23:50.843Z,2.80
2022-12-06T23:26:20.632Z,2.70
2022-12-06T23:28:48.151Z,2.70
2022-12-06T23:31:18.780Z,2.70
2022-12-06T23:33:46.367Z,2.60
2022-12-06T23:36:22.528Z,2.60
2022-12-06T23:38:49.676Z,2.70
2022-12-06T23:41:19.424Z,2.70
2022-12-06T23:43:46.909Z,2.60
2022-12-06T23:46:20.607Z,2.60
2022-12-06T23:48:52.855Z,2.60
2022-12-06T23:51:22.549Z,2.70
2022-12-06T23:53:55.038Z,2.70
2022-12-06T23:56:22.611Z,2.80
2022-12-06T23:58:50.787Z,2.70
